SWA3176 KDAL-KOKC
Flight info
| Callsign | SWA3176 |
|---|---|
| Flight time | 0h 31m |
| Altitude | 28000 |
| Route | SWTSR7 ZEMMA TSDEL3 |
| Aircraft | B738/M-SADE2E3GIJ4RWZ/LB1D1 |
Departure
| Time | 2026-04-17 04:28 |
|---|---|
| Airport | Dallas Love Field (KDAL) |
Arrival
| Time | 2026-04-17 04:59 |
|---|---|
| Airport | OKC Will Rogers World Airport (KOKC) |
| Time | Latitude | Longitude | Altitude | Speed | Heading |
|---|---|---|---|---|---|
| 2026-04-17 03:17 | 32.84646 | -96.84991 | 483 ft | 0 kts | 181° |
| 2026-04-17 04:19 | 32.84650 | -96.84990 | 474 ft | 2 kts | 181° |
| 2026-04-17 04:19 | 32.84669 | -96.84990 | 478 ft | 3 kts | 180° |
| 2026-04-17 04:19 | 32.84683 | -96.84990 | 480 ft | 3 kts | 180° |
| 2026-04-17 04:20 | 32.84703 | -96.84990 | 478 ft | 3 kts | 180° |
| 2026-04-17 04:20 | 32.84720 | -96.84990 | 479 ft | 3 kts | 174° |
| 2026-04-17 04:20 | 32.84736 | -96.84995 | 474 ft | 3 kts | 134° |
| 2026-04-17 04:20 | 32.84744 | -96.85014 | 476 ft | 3 kts | 95° |
| 2026-04-17 04:21 | 32.84745 | -96.85030 | 475 ft | 1 kts | 91° |
| 2026-04-17 04:21 | 32.84745 | -96.85034 | 475 ft | 0 kts | 91° |
| 2026-04-17 04:24 | 32.84745 | -96.85030 | 483 ft | 2 kts | 90° |
| 2026-04-17 04:25 | 32.84745 | -96.84989 | 483 ft | 9 kts | 91° |
| 2026-04-17 04:25 | 32.84770 | -96.84903 | 481 ft | 14 kts | 25° |
| 2026-04-17 04:25 | 32.84862 | -96.84967 | 480 ft | 20 kts | 316° |
| 2026-04-17 04:25 | 32.84979 | -96.85109 | 481 ft | 28 kts | 306° |
| 2026-04-17 04:26 | 32.85132 | -96.85291 | 483 ft | 34 kts | 319° |
| 2026-04-17 04:26 | 32.85321 | -96.85483 | 483 ft | 37 kts | 317° |
| 2026-04-17 04:26 | 32.85506 | -96.85689 | 483 ft | 31 kts | 316° |
| 2026-04-17 04:26 | 32.85629 | -96.85776 | 480 ft | 15 kts | 32° |
| 2026-04-17 04:27 | 32.85699 | -96.85680 | 485 ft | 16 kts | 75° |
| 2026-04-17 04:27 | 32.85586 | -96.85514 | 485 ft | 57 kts | 135° |
| 2026-04-17 04:27 | 32.85126 | -96.84981 | 481 ft | 125 kts | 136° |
| 2026-04-17 04:27 | 32.84381 | -96.84125 | 761 ft | 158 kts | 137° |
| 2026-04-17 04:28 | 32.83597 | -96.83218 | 1550 ft | 162 kts | 143° |
| 2026-04-17 04:28 | 32.82781 | -96.82356 | 2434 ft | 156 kts | 146° |
| 2026-04-17 04:28 | 32.81895 | -96.81430 | 2713 ft | 183 kts | 144° |
| 2026-04-17 04:28 | 32.80891 | -96.80369 | 3003 ft | 201 kts | 144° |
| 2026-04-17 04:29 | 32.79829 | -96.79235 | 3562 ft | 206 kts | 144° |
| 2026-04-17 04:29 | 32.78944 | -96.77848 | 4147 ft | 224 kts | 114° |
| 2026-04-17 04:29 | 32.78790 | -96.75878 | 4397 ft | 256 kts | 93° |
| 2026-04-17 04:29 | 32.78861 | -96.73668 | 4683 ft | 277 kts | 92° |
| 2026-04-17 04:30 | 32.78926 | -96.71365 | 5218 ft | 285 kts | 92° |
| 2026-04-17 04:30 | 32.78982 | -96.68996 | 5995 ft | 289 kts | 92° |
| 2026-04-17 04:30 | 32.79258 | -96.66611 | 6814 ft | 299 kts | 70° |
| 2026-04-17 04:30 | 32.80478 | -96.64611 | 7644 ft | 304 kts | 37° |
| 2026-04-17 04:31 | 32.82383 | -96.63583 | 8493 ft | 304 kts | 6° |
| 2026-04-17 04:31 | 32.84469 | -96.63691 | 9362 ft | 300 kts | 346° |
| 2026-04-17 04:31 | 32.86526 | -96.64214 | 10184 ft | 304 kts | 343° |
| 2026-04-17 04:31 | 32.88653 | -96.64811 | 10561 ft | 326 kts | 342° |
| 2026-04-17 04:32 | 32.90939 | -96.65473 | 10731 ft | 351 kts | 342° |
| 2026-04-17 04:32 | 32.93390 | -96.66195 | 10966 ft | 372 kts | 342° |
| 2026-04-17 04:32 | 32.95951 | -96.66957 | 11228 ft | 390 kts | 342° |
| 2026-04-17 04:32 | 32.98644 | -96.67764 | 11507 ft | 404 kts | 342° |
| 2026-04-17 04:33 | 33.01409 | -96.68548 | 12059 ft | 410 kts | 345° |
| 2026-04-17 04:33 | 33.04220 | -96.69198 | 12751 ft | 412 kts | 346° |
| 2026-04-17 04:33 | 33.07030 | -96.69788 | 13360 ft | 416 kts | 346° |
| 2026-04-17 04:33 | 33.09904 | -96.70377 | 13931 ft | 420 kts | 346° |
| 2026-04-17 04:34 | 33.15722 | -96.71594 | 15047 ft | 426 kts | 346° |
| 2026-04-17 04:34 | 33.18647 | -96.72223 | 15599 ft | 429 kts | 345° |
| 2026-04-17 04:34 | 33.21594 | -96.72866 | 16128 ft | 432 kts | 345° |
| 2026-04-17 04:35 | 33.24563 | -96.73519 | 16648 ft | 435 kts | 345° |
| 2026-04-17 04:35 | 33.27551 | -96.74178 | 17160 ft | 438 kts | 345° |
| 2026-04-17 04:35 | 33.29542 | -96.74619 | 17505 ft | 440 kts | 345° |
| 2026-04-17 04:35 | 33.32566 | -96.75289 | 17993 ft | 443 kts | 345° |
| 2026-04-17 04:36 | 33.35607 | -96.75963 | 18440 ft | 446 kts | 345° |
| 2026-04-17 04:36 | 33.38670 | -96.76642 | 18849 ft | 449 kts | 345° |
| 2026-04-17 04:36 | 33.42761 | -96.77549 | 19404 ft | 453 kts | 344° |
| 2026-04-17 04:36 | 33.44858 | -96.78014 | 19690 ft | 454 kts | 344° |
| 2026-04-17 04:37 | 33.47976 | -96.78706 | 20087 ft | 457 kts | 344° |
| 2026-04-17 04:37 | 33.51084 | -96.79397 | 20472 ft | 461 kts | 344° |
| 2026-04-17 04:37 | 33.54246 | -96.80100 | 20861 ft | 464 kts | 344° |
| 2026-04-17 04:37 | 33.57432 | -96.80809 | 21259 ft | 466 kts | 344° |
| 2026-04-17 04:38 | 33.60633 | -96.81521 | 21651 ft | 469 kts | 344° |
| 2026-04-17 04:38 | 33.63853 | -96.82239 | 22015 ft | 472 kts | 344° |
| 2026-04-17 04:38 | 33.67094 | -96.82962 | 22363 ft | 475 kts | 343° |
| 2026-04-17 04:38 | 33.70355 | -96.83689 | 22727 ft | 478 kts | 343° |
| 2026-04-17 04:39 | 33.73628 | -96.84420 | 23078 ft | 480 kts | 343° |
| 2026-04-17 04:39 | 33.76924 | -96.85157 | 23417 ft | 483 kts | 343° |
| 2026-04-17 04:39 | 33.80242 | -96.85899 | 23704 ft | 486 kts | 343° |
| 2026-04-17 04:39 | 33.83570 | -96.86643 | 23944 ft | 486 kts | 343° |
| 2026-04-17 04:40 | 33.86915 | -96.87392 | 23934 ft | 489 kts | 343° |
| 2026-04-17 04:40 | 33.90265 | -96.88142 | 23939 ft | 489 kts | 343° |
| 2026-04-17 04:40 | 33.93607 | -96.88891 | 23926 ft | 489 kts | 343° |
| 2026-04-17 04:40 | 33.96953 | -96.89642 | 23931 ft | 490 kts | 343° |
| 2026-04-17 04:41 | 34.00321 | -96.90400 | 23935 ft | 495 kts | 343° |
| 2026-04-17 04:41 | 34.03676 | -96.91157 | 23936 ft | 498 kts | 343° |
| 2026-04-17 04:41 | 34.07081 | -96.91923 | 23932 ft | 497 kts | 343° |
| 2026-04-17 04:41 | 34.10482 | -96.92687 | 23929 ft | 496 kts | 343° |
| 2026-04-17 04:42 | 34.13873 | -96.93450 | 23933 ft | 495 kts | 343° |
| 2026-04-17 04:42 | 34.17265 | -96.94215 | 23942 ft | 495 kts | 343° |
| 2026-04-17 04:42 | 34.20651 | -96.94980 | 23943 ft | 495 kts | 343° |
| 2026-04-17 04:42 | 34.24033 | -96.95744 | 23944 ft | 494 kts | 343° |
| 2026-04-17 04:43 | 34.27413 | -96.96509 | 23906 ft | 493 kts | 343° |
| 2026-04-17 04:43 | 34.30727 | -96.97254 | 23357 ft | 475 kts | 343° |
| 2026-04-17 04:43 | 34.33949 | -96.97981 | 22174 ft | 468 kts | 343° |
| 2026-04-17 04:43 | 34.37105 | -96.98700 | 21768 ft | 451 kts | 342° |
| 2026-04-17 04:44 | 34.40077 | -96.99831 | 21358 ft | 452 kts | 328° |
| 2026-04-17 04:44 | 34.42891 | -97.01651 | 20870 ft | 462 kts | 325° |
| 2026-04-17 04:44 | 34.45660 | -97.03499 | 20314 ft | 458 kts | 325° |
| 2026-04-17 04:44 | 34.48438 | -97.05338 | 19773 ft | 452 kts | 326° |
| 2026-04-17 04:45 | 34.51192 | -97.07135 | 19249 ft | 446 kts | 326° |
| 2026-04-17 04:45 | 34.53920 | -97.08897 | 18736 ft | 443 kts | 326° |
| 2026-04-17 04:45 | 34.56634 | -97.10639 | 18214 ft | 439 kts | 327° |
| 2026-04-17 04:45 | 34.59331 | -97.12366 | 17643 ft | 437 kts | 327° |
| 2026-04-17 04:46 | 34.62014 | -97.14084 | 17115 ft | 433 kts | 327° |
| 2026-04-17 04:46 | 34.64668 | -97.15785 | 16600 ft | 430 kts | 327° |
| 2026-04-17 04:46 | 34.67312 | -97.17481 | 16094 ft | 427 kts | 327° |
| 2026-04-17 04:46 | 34.69931 | -97.19163 | 15582 ft | 425 kts | 327° |
| 2026-04-17 04:47 | 34.72536 | -97.20838 | 15103 ft | 422 kts | 327° |
| 2026-04-17 04:47 | 34.75124 | -97.22503 | 14668 ft | 419 kts | 328° |
| 2026-04-17 04:47 | 34.77696 | -97.24158 | 14197 ft | 417 kts | 328° |
| 2026-04-17 04:47 | 34.80178 | -97.25850 | 13730 ft | 413 kts | 325° |
| 2026-04-17 04:48 | 34.82611 | -97.27690 | 13239 ft | 408 kts | 323° |
| 2026-04-17 04:48 | 34.84981 | -97.29519 | 13091 ft | 398 kts | 324° |
| 2026-04-17 04:48 | 34.87344 | -97.31319 | 12920 ft | 401 kts | 324° |
| 2026-04-17 04:48 | 34.89724 | -97.33111 | 12711 ft | 404 kts | 324° |
| 2026-04-17 04:49 | 34.92113 | -97.34917 | 12266 ft | 402 kts | 324° |
| 2026-04-17 04:49 | 34.94472 | -97.36710 | 11837 ft | 397 kts | 324° |
| 2026-04-17 04:49 | 34.96808 | -97.38490 | 11398 ft | 394 kts | 324° |
| 2026-04-17 04:49 | 34.99100 | -97.40240 | 10981 ft | 391 kts | 324° |
| 2026-04-17 04:50 | 35.01399 | -97.41994 | 10568 ft | 389 kts | 324° |
| 2026-04-17 04:50 | 35.03691 | -97.43743 | 10196 ft | 386 kts | 324° |
| 2026-04-17 04:50 | 35.05943 | -97.45455 | 10032 ft | 373 kts | 326° |
| 2026-04-17 04:50 | 35.06701 | -97.45969 | 9912 ft | 367 kts | 330° |
| 2026-04-17 04:51 | 35.08443 | -97.46706 | 9606 ft | 359 kts | 345° |
| 2026-04-17 04:51 | 35.10876 | -97.46983 | 9272 ft | 344 kts | 354° |
| 2026-04-17 04:51 | 35.13217 | -97.47084 | 8911 ft | 330 kts | 354° |
| 2026-04-17 04:51 | 35.15485 | -97.47197 | 8583 ft | 322 kts | 353° |
| 2026-04-17 04:52 | 35.17714 | -97.47327 | 8265 ft | 322 kts | 353° |
| 2026-04-17 04:52 | 35.19965 | -97.47469 | 7948 ft | 326 kts | 353° |
| 2026-04-17 04:52 | 35.22243 | -97.47616 | 7608 ft | 327 kts | 353° |
| 2026-04-17 04:52 | 35.24505 | -97.47761 | 7423 ft | 322 kts | 353° |
| 2026-04-17 04:53 | 35.26728 | -97.47902 | 7213 ft | 318 kts | 353° |
| 2026-04-17 04:53 | 35.28940 | -97.48045 | 6895 ft | 319 kts | 353° |
| 2026-04-17 04:53 | 35.31172 | -97.48190 | 6615 ft | 323 kts | 353° |
| 2026-04-17 04:55 | 35.44355 | -97.48682 | 5297 ft | 210 kts | 354° |
| 2026-04-17 04:55 | 35.45788 | -97.48693 | 4837 ft | 208 kts | 350° |
| 2026-04-17 04:55 | 35.47063 | -97.49322 | 4286 ft | 189 kts | 303° |
| 2026-04-17 04:56 | 35.47543 | -97.50677 | 3823 ft | 172 kts | 271° |
| 2026-04-17 04:56 | 35.47700 | -97.52082 | 3596 ft | 161 kts | 264° |
| 2026-04-17 04:56 | 35.47634 | -97.53414 | 3302 ft | 155 kts | 257° |
| 2026-04-17 04:56 | 35.47549 | -97.54733 | 2934 ft | 156 kts | 257° |
| 2026-04-17 04:57 | 35.47466 | -97.56046 | 2660 ft | 153 kts | 256° |
| 2026-04-17 04:57 | 35.47340 | -97.57310 | 2554 ft | 150 kts | 245° |
| 2026-04-17 04:57 | 35.46790 | -97.58297 | 2563 ft | 137 kts | 211° |
| 2026-04-17 04:57 | 35.45888 | -97.58699 | 2348 ft | 141 kts | 194° |
| 2026-04-17 04:58 | 35.44921 | -97.58842 | 2192 ft | 138 kts | 186° |
| 2026-04-17 04:58 | 35.43928 | -97.58891 | 1999 ft | 148 kts | 182° |
| 2026-04-17 04:58 | 35.42894 | -97.58891 | 1801 ft | 149 kts | 178° |
| 2026-04-17 04:58 | 35.41824 | -97.58888 | 1615 ft | 158 kts | 177° |
| 2026-04-17 04:59 | 35.40726 | -97.58896 | 1377 ft | 154 kts | 179° |
| 2026-04-17 04:59 | 35.39710 | -97.58895 | 1290 ft | 131 kts | 179° |
| 2026-04-17 04:59 | 35.38980 | -97.58894 | 1293 ft | 53 kts | 180° |
| 2026-04-17 04:59 | 35.38799 | -97.58991 | 1291 ft | 26 kts | 267° |
| 2026-04-17 05:00 | 35.38921 | -97.59062 | 1292 ft | 20 kts | 0° |
| 2026-04-17 05:00 | 35.39039 | -97.59062 | 1292 ft | 15 kts | 360° |
| 2026-04-17 05:00 | 35.39156 | -97.59062 | 1290 ft | 19 kts | 359° |
| 2026-04-17 05:00 | 35.39216 | -97.59174 | 1292 ft | 20 kts | 269° |
| 2026-04-17 05:01 | 35.39216 | -97.59374 | 1294 ft | 26 kts | 270° |
| 2026-04-17 05:01 | 35.39276 | -97.59545 | 1295 ft | 22 kts | 328° |
| 2026-04-17 05:01 | 35.39378 | -97.59708 | 1296 ft | 20 kts | 311° |
| 2026-04-17 05:01 | 35.39454 | -97.59704 | 1296 ft | 6 kts | 33° |
| 2026-04-17 05:02 | 35.39458 | -97.59700 | 1296 ft | 0 kts | 34° |